sensor_id;sensor_type;location;lat;lon;timestamp;temperature;humidity
7684;DHT22;3884;48.616;12.872;2024-03-06T00:00:11;6.30;99.90
7684;DHT22;3884;48.616;12.872;2024-03-06T00:02:38;6.20;1.00
7684;DHT22;3884;48.616;12.872;2024-03-06T00:05:06;6.10;99.90
7684;DHT22;3884;48.616;12.872;2024-03-06T00:07:38;6.10;1.00
7684;DHT22;3884;48.616;12.872;2024-03-06T00:10:11;6.10;1.00
7684;DHT22;3884;48.616;12.872;2024-03-06T00:12:52;6.40;1.00
7684;DHT22;3884;48.616;12.872;2024-03-06T00:15:19;6.10;1.00
7684;DHT22;3884;48.616;12.872;2024-03-06T00:17:47;6.20;1.00
7684;DHT22;3884;48.616;12.872;2024-03-06T00:20:16;6.40;99.90
7684;DHT22;3884;48.616;12.872;2024-03-06T00:22:51;6.20;99.90
7684;DHT22;3884;48.616;12.872;2024-03-06T00:25:20;6.70;1.00
7684;DHT22;3884;48.616;12.872;2024-03-06T00:27:55;6.10;1.00
7684;DHT22;3884;48.616;12.872;2024-03-06T00:30:37;6.00;1.00
7684;DHT22;3884;48.616;12.872;2024-03-06T00:33:05;6.00;1.00
7684;DHT22;3884;48.616;12.872;2024-03-06T00:35:48;5.90;99.90
7684;DHT22;3884;48.616;12.872;2024-03-06T00:38:18;5.70;99.90
7684;DHT22;3884;48.616;12.872;2024-03-06T00:40:50;5.80;1.00
7684;DHT22;3884;48.616;12.872;2024-03-06T00:43:25;5.80;1.00
7684;DHT22;3884;48.616;12.872;2024-03-06T00:45:52;5.80;1.00
7684;DHT22;3884;48.616;12.872;2024-03-06T00:48:23;5.80;1.00
7684;DHT22;3884;48.616;12.872;2024-03-06T00:50:51;5.70;1.50
7684;DHT22;3884;48.616;12.872;2024-03-06T00:53:21;5.70;1.00
7684;DHT22;3884;48.616;12.872;2024-03-06T00:55:51;5.90;76.40
7684;DHT22;3884;48.616;12.872;2024-03-06T00:58:32;5.70;99.90
7684;DHT22;3884;48.616;12.872;2024-03-06T01:01:00;5.60;99.90
7684;DHT22;3884;48.616;12.872;2024-03-06T01:03:29;6.20;99.90
7684;DHT22;3884;48.616;12.872;2024-03-06T01:06:00;6.40;99.90
7684;DHT22;3884;48.616;12.872;2024-03-06T01:08:30;5.90;39.00
7684;DHT22;3884;48.616;12.872;2024-03-06T01:10:59;5.90;1.00
7684;DHT22;3884;48.616;12.872;2024-03-06T01:13:30;6.50;31.90
7684;DHT22;3884;48.616;12.872;2024-03-06T01:15:59;6.10;1.00
7684;DHT22;3884;48.616;12.872;2024-03-06T01:18:36;6.00;1.00
7684;DHT22;3884;48.616;12.872;2024-03-06T01:21:19;6.60;1.00
7684;DHT22;3884;48.616;12.872;2024-03-06T01:23:51;6.20;1.00
7684;DHT22;3884;48.616;12.872;2024-03-06T01:26:19;6.00;1.00
7684;DHT22;3884;48.616;12.872;2024-03-06T01:28:48;6.10;99.90
7684;DHT22;3884;48.616;12.872;2024-03-06T01:31:21;6.00;99.90
7684;DHT22;3884;48.616;12.872;2024-03-06T01:33:51;5.90;1.00
7684;DHT22;3884;48.616;12.872;2024-03-06T01:36:22;6.10;1.00
7684;DHT22;3884;48.616;12.872;2024-03-06T01:39:03;5.90;1.00
7684;DHT22;3884;48.616;12.872;2024-03-06T01:41:36;6.20;1.00
7684;DHT22;3884;48.616;12.872;2024-03-06T01:44:04;6.20;1.00
7684;DHT22;3884;48.616;12.872;2024-03-06T01:46:32;5.80;1.00
7684;DHT22;3884;48.616;12.872;2024-03-06T01:49:00;5.80;1.00
7684;DHT22;3884;48.616;12.872;2024-03-06T01:51:29;5.80;1.00
7684;DHT22;3884;48.616;12.872;2024-03-06T01:54:00;5.80;1.00
7684;DHT22;3884;48.616;12.872;2024-03-06T01:56:30;5.60;1.00
7684;DHT22;3884;48.616;12.872;2024-03-06T01:59:03;5.60;1.00
7684;DHT22;3884;48.616;12.872;2024-03-06T02:01:32;5.40;1.00
7684;DHT22;3884;48.616;12.872;2024-03-06T02:04:04;5.40;82.50
7684;DHT22;3884;48.616;12.872;2024-03-06T02:06:33;5.40;26.30
7684;DHT22;3884;48.616;12.872;2024-03-06T02:09:03;6.50;74.30
7684;DHT22;3884;48.616;12.872;2024-03-06T02:11:33;5.00;99.90
7684;DHT22;3884;48.616;12.872;2024-03-06T02:14:02;5.10;99.90
7684;DHT22;3884;48.616;12.872;2024-03-06T02:16:40;5.70;99.90
7684;DHT22;3884;48.616;12.872;2024-03-06T02:19:08;5.10;99.90
7684;DHT22;3884;48.616;12.872;2024-03-06T02:21:39;5.30;82.90
7684;DHT22;3884;48.616;12.872;2024-03-06T02:24:09;5.20;97.20
7684;DHT22;3884;48.616;12.872;2024-03-06T02:26:37;5.40;74.20
7684;DHT22;3884;48.616;12.872;2024-03-06T02:29:04;4.30;92.20
7684;DHT22;3884;48.616;12.872;2024-03-06T02:31:34;5.50;70.60
7684;DHT22;3884;48.616;12.872;2024-03-06T02:34:25;5.60;80.90
7684;DHT22;3884;48.616;12.872;2024-03-06T02:40:32;5.20;57.90
7684;DHT22;3884;48.616;12.872;2024-03-06T02:43:15;5.00;1.00
7684;DHT22;3884;48.616;12.872;2024-03-06T02:45:46;4.60;1.00
7684;DHT22;3884;48.616;12.872;2024-03-06T02:48:26;4.90;1.00
7684;DHT22;3884;48.616;12.872;2024-03-06T02:51:08;6.10;1.00
7684;DHT22;3884;48.616;12.872;2024-03-06T02:53:36;5.30;1.00
7684;DHT22;3884;48.616;12.872;2024-03-06T02:56:07;4.80;1.00
7684;DHT22;3884;48.616;12.872;2024-03-06T02:58:35;5.40;1.00
7684;DHT22;3884;48.616;12.872;2024-03-06T03:01:03;4.80;1.00
7684;DHT22;3884;48.616;12.872;2024-03-06T03:03:31;4.80;1.00
7684;DHT22;3884;48.616;12.872;2024-03-06T03:06:00;4.70;1.00
7684;DHT22;3884;48.616;12.872;2024-03-06T03:08:28;4.80;1.00
7684;DHT22;3884;48.616;12.872;2024-03-06T03:10:59;5.70;1.00
7684;DHT22;3884;48.616;12.872;2024-03-06T03:13:31;4.80;99.90
7684;DHT22;3884;48.616;12.872;2024-03-06T03:16:16;5.20;99.90
7684;DHT22;3884;48.616;12.872;2024-03-06T03:18:49;4.70;99.90
7684;DHT22;3884;48.616;12.872;2024-03-06T03:21:32;5.40;99.90
7684;DHT22;3884;48.616;12.872;2024-03-06T03:24:05;5.20;40.90
7684;DHT22;3884;48.616;12.872;2024-03-06T03:26:41;4.40;1.00
7684;DHT22;3884;48.616;12.872;2024-03-06T03:29:14;4.80;35.10
7684;DHT22;3884;48.616;12.872;2024-03-06T03:31:57;4.30;1.00
7684;DHT22;3884;48.616;12.872;2024-03-06T03:34:40;4.10;99.90
7684;DHT22;3884;48.616;12.872;2024-03-06T03:37:09;4.90;99.90
7684;DHT22;3884;48.616;12.872;2024-03-06T03:39:40;4.40;99.90
7684;DHT22;3884;48.616;12.872;2024-03-06T03:42:09;4.90;1.00
7684;DHT22;3884;48.616;12.872;2024-03-06T03:44:41;4.40;1.00
7684;DHT22;3884;48.616;12.872;2024-03-06T03:47:11;4.40;1.00
7684;DHT22;3884;48.616;12.872;2024-03-06T03:49:41;5.00;1.00
7684;DHT22;3884;48.616;12.872;2024-03-06T03:52:13;5.10;1.00
7684;DHT22;3884;48.616;12.872;2024-03-06T03:54:40;4.90;83.30
7684;DHT22;3884;48.616;12.872;2024-03-06T03:57:07;4.80;1.00
7684;DHT22;3884;48.616;12.872;2024-03-06T03:59:35;4.60;7.70
7684;DHT22;3884;48.616;12.872;2024-03-06T04:02:12;4.80;1.00
7684;DHT22;3884;48.616;12.872;2024-03-06T04:04:40;5.40;99.90
7684;DHT22;3884;48.616;12.872;2024-03-06T04:07:08;4.20;99.90
7684;DHT22;3884;48.616;12.872;2024-03-06T04:09:36;4.20;1.00
7684;DHT22;3884;48.616;12.872;2024-03-06T04:12:04;4.90;10.90
7684;DHT22;3884;48.616;12.872;2024-03-06T04:14:32;4.30;99.90
7684;DHT22;3884;48.616;12.872;2024-03-06T04:17:04;4.50;99.90
7684;DHT22;3884;48.616;12.872;2024-03-06T04:19:38;4.40;99.90
7684;DHT22;3884;48.616;12.872;2024-03-06T04:22:19;4.50;99.90
7684;DHT22;3884;48.616;12.872;2024-03-06T04:24:48;5.60;99.90
7684;DHT22;3884;48.616;12.872;2024-03-06T04:27:18;4.40;99.90
7684;DHT22;3884;48.616;12.872;2024-03-06T04:29:47;4.30;94.70
7684;DHT22;3884;48.616;12.872;2024-03-06T04:32:30;4.20;99.90
7684;DHT22;3884;48.616;12.872;2024-03-06T04:35:17;4.50;99.90
7684;DHT22;3884;48.616;12.872;2024-03-06T04:37:44;4.10;99.90
7684;DHT22;3884;48.616;12.872;2024-03-06T04:40:26;4.20;99.90
7684;DHT22;3884;48.616;12.872;2024-03-06T04:43:07;4.30;99.90
7684;DHT22;3884;48.616;12.872;2024-03-06T04:45:34;4.20;99.90
7684;DHT22;3884;48.616;12.872;2024-03-06T04:48:07;4.40;99.90
7684;DHT22;3884;48.616;12.872;2024-03-06T04:50:39;4.30;99.90
7684;DHT22;3884;48.616;12.872;2024-03-06T04:53:06;4.90;99.90
7684;DHT22;3884;48.616;12.872;2024-03-06T04:55:37;5.00;99.90
7684;DHT22;3884;48.616;12.872;2024-03-06T04:58:12;4.20;99.90
7684;DHT22;3884;48.616;12.872;2024-03-06T05:00:40;5.20;99.90
7684;DHT22;3884;48.616;12.872;2024-03-06T05:03:07;5.50;99.90
7684;DHT22;3884;48.616;12.872;2024-03-06T05:05:40;5.50;99.90
7684;DHT22;3884;48.616;12.872;2024-03-06T05:08:08;4.80;99.90
7684;DHT22;3884;48.616;12.872;2024-03-06T05:10:36;4.00;99.90
7684;DHT22;3884;48.616;12.872;2024-03-06T05:13:23;4.00;99.90
7684;DHT22;3884;48.616;12.872;2024-03-06T05:15:52;4.00;99.90
7684;DHT22;3884;48.616;12.872;2024-03-06T05:18:19;3.90;99.90
7684;DHT22;3884;48.616;12.872;2024-03-06T05:20:50;5.40;99.90
7684;DHT22;3884;48.616;12.872;2024-03-06T05:23:17;4.70;99.90
7684;DHT22;3884;48.616;12.872;2024-03-06T05:25:44;4.70;99.90
7684;DHT22;3884;48.616;12.872;2024-03-06T05:28:11;4.00;99.90
7684;DHT22;3884;48.616;12.872;2024-03-06T05:30:38;4.40;99.90
7684;DHT22;3884;48.616;12.872;2024-03-06T05:33:15;3.90;99.90
7684;DHT22;3884;48.616;12.872;2024-03-06T05:35:43;4.10;99.90
7684;DHT22;3884;48.616;12.872;2024-03-06T05:38:13;3.80;99.90
7684;DHT22;3884;48.616;12.872;2024-03-06T05:40:42;3.70;99.90
7684;DHT22;3884;48.616;12.872;2024-03-06T05:43:11;3.70;99.90
7684;DHT22;3884;48.616;12.872;2024-03-06T05:45:38;3.70;99.90
7684;DHT22;3884;48.616;12.872;2024-03-06T05:48:07;4.40;99.90
7684;DHT22;3884;48.616;12.872;2024-03-06T05:50:35;3.60;99.90
7684;DHT22;3884;48.616;12.872;2024-03-06T05:53:09;3.60;99.90
7684;DHT22;3884;48.616;12.872;2024-03-06T05:55:38;3.60;99.90
7684;DHT22;3884;48.616;12.872;2024-03-06T05:58:08;4.00;99.90
7684;DHT22;3884;48.616;12.872;2024-03-06T06:00:35;3.60;1.00
7684;DHT22;3884;48.616;12.872;2024-03-06T06:03:05;3.60;1.00
7684;DHT22;3884;48.616;12.872;2024-03-06T06:05:46;3.60;1.00
7684;DHT22;3884;48.616;12.872;2024-03-06T06:08:15;4.00;1.00
7684;DHT22;3884;48.616;12.872;2024-03-06T06:11:02;3.70;1.00
7684;DHT22;3884;48.616;12.872;2024-03-06T06:13:30;4.30;1.00
7684;DHT22;3884;48.616;12.872;2024-03-06T06:15:58;4.40;99.90
7684;DHT22;3884;48.616;12.872;2024-03-06T06:18:27;3.70;99.90
7684;DHT22;3884;48.616;12.872;2024-03-06T06:20:54;4.80;1.00
7684;DHT22;3884;48.616;12.872;2024-03-06T06:23:21;3.90;99.90
7684;DHT22;3884;48.616;12.872;2024-03-06T06:25:49;3.90;99.90
7684;DHT22;3884;48.616;12.872;2024-03-06T06:28:21;4.80;99.90
7684;DHT22;3884;48.616;12.872;2024-03-06T06:30:49;4.40;99.90
7684;DHT22;3884;48.616;12.872;2024-03-06T06:33:18;4.40;99.90
7684;DHT22;3884;48.616;12.872;2024-03-06T06:35:48;4.00;99.90
7684;DHT22;3884;48.616;12.872;2024-03-06T06:38:15;3.90;99.90
7684;DHT22;3884;48.616;12.872;2024-03-06T06:40:44;4.00;99.90
7684;DHT22;3884;48.616;12.872;2024-03-06T06:43:11;4.00;99.90
7684;DHT22;3884;48.616;12.872;2024-03-06T06:45:40;4.90;99.90
7684;DHT22;3884;48.616;12.872;2024-03-06T06:48:08;4.10;99.90
7684;DHT22;3884;48.616;12.872;2024-03-06T06:50:35;4.10;99.90
7684;DHT22;3884;48.616;12.872;2024-03-06T06:53:02;4.10;99.90
7684;DHT22;3884;48.616;12.872;2024-03-06T06:55:29;4.20;99.90
7684;DHT22;3884;48.616;12.872;2024-03-06T06:57:57;4.30;1.00
7684;DHT22;3884;48.616;12.872;2024-03-06T07:00:24;4.40;99.90
7684;DHT22;3884;48.616;12.872;2024-03-06T07:02:55;4.40;1.00
7684;DHT22;3884;48.616;12.872;2024-03-06T07:05:29;4.50;1.00
7684;DHT22;3884;48.616;12.872;2024-03-06T07:07:58;4.50;1.00
7684;DHT22;3884;48.616;12.872;2024-03-06T07:10:25;4.50;1.00
7684;DHT22;3884;48.616;12.872;2024-03-06T07:12:53;4.60;1.00
7684;DHT22;3884;48.616;12.872;2024-03-06T07:40:39;5.30;1.00
7684;DHT22;3884;48.616;12.872;2024-03-06T07:55:18;6.10;1.00
7684;DHT22;3884;48.616;12.872;2024-03-06T07:57:49;6.20;1.00
7684;DHT22;3884;48.616;12.872;2024-03-06T08:03:43;6.50;1.00
7684;DHT22;3884;48.616;12.872;2024-03-06T08:06:12;6.80;99.90
7684;DHT22;3884;48.616;12.872;2024-03-06T08:08:56;7.10;99.90
7684;DHT22;3884;48.616;12.872;2024-03-06T08:11:24;7.20;90.70
7684;DHT22;3884;48.616;12.872;2024-03-06T08:14:02;7.00;1.00
7684;DHT22;3884;48.616;12.872;2024-03-06T08:16:30;7.20;41.70
7684;DHT22;3884;48.616;12.872;2024-03-06T08:19:05;7.10;1.00
7684;DHT22;3884;48.616;12.872;2024-03-06T08:21:32;7.30;1.00
7684;DHT22;3884;48.616;12.872;2024-03-06T08:23:59;7.20;49.60
7684;DHT22;3884;48.616;12.872;2024-03-06T08:26:26;7.30;1.00
7684;DHT22;3884;48.616;12.872;2024-03-06T08:28:54;7.40;1.00
7684;DHT22;3884;48.616;12.872;2024-03-06T08:31:23;7.60;99.90
7684;DHT22;3884;48.616;12.872;2024-03-06T08:33:51;8.00;1.00
7684;DHT22;3884;48.616;12.872;2024-03-06T08:36:18;8.00;99.90
7684;DHT22;3884;48.616;12.872;2024-03-06T08:38:47;8.00;1.00
7684;DHT22;3884;48.616;12.872;2024-03-06T08:41:13;8.20;1.00
7684;DHT22;3884;48.616;12.872;2024-03-06T08:50:08;8.60;1.00
7684;DHT22;3884;48.616;12.872;2024-03-06T08:52:39;8.80;1.00
7684;DHT22;3884;48.616;12.872;2024-03-06T08:55:07;8.90;1.00
7684;DHT22;3884;48.616;12.872;2024-03-06T08:57:35;9.00;1.00
7684;DHT22;3884;48.616;12.872;2024-03-06T09:00:07;9.10;1.00
7684;DHT22;3884;48.616;12.872;2024-03-06T09:02:36;9.10;99.90
7684;DHT22;3884;48.616;12.872;2024-03-06T09:05:04;9.10;99.90
7684;DHT22;3884;48.616;12.872;2024-03-06T09:07:33;9.20;99.90
7684;DHT22;3884;48.616;12.872;2024-03-06T09:10:04;9.40;99.90
7684;DHT22;3884;48.616;12.872;2024-03-06T09:12:32;9.60;99.90
7684;DHT22;3884;48.616;12.872;2024-03-06T09:15:01;9.70;99.30
7684;DHT22;3884;48.616;12.872;2024-03-06T09:23:07;9.40;1.00
7684;DHT22;3884;48.616;12.872;2024-03-06T09:25:45;9.50;43.40
7684;DHT22;3884;48.616;12.872;2024-03-06T09:28:29;9.70;1.00
7684;DHT22;3884;48.616;12.872;2024-03-06T09:30:56;9.60;1.00
7684;DHT22;3884;48.616;12.872;2024-03-06T09:33:26;9.60;1.00
7684;DHT22;3884;48.616;12.872;2024-03-06T09:36:18;9.50;1.00
7684;DHT22;3884;48.616;12.872;2024-03-06T09:39:06;9.70;1.00
7684;DHT22;3884;48.616;12.872;2024-03-06T09:41:34;9.80;1.00
7684;DHT22;3884;48.616;12.872;2024-03-06T09:44:00;9.80;1.00
7684;DHT22;3884;48.616;12.872;2024-03-06T09:46:29;9.70;1.00
7684;DHT22;3884;48.616;12.872;2024-03-06T09:49:02;9.80;1.00
7684;DHT22;3884;48.616;12.872;2024-03-06T09:51:47;9.80;1.00
7684;DHT22;3884;48.616;12.872;2024-03-06T09:54:17;10.00;1.00
7684;DHT22;3884;48.616;12.872;2024-03-06T09:56:44;9.90;1.00
7684;DHT22;3884;48.616;12.872;2024-03-06T09:59:11;10.00;1.00
7684;DHT22;3884;48.616;12.872;2024-03-06T10:01:40;9.90;1.00
7684;DHT22;3884;48.616;12.872;2024-03-06T10:04:18;10.20;1.00
7684;DHT22;3884;48.616;12.872;2024-03-06T10:06:46;10.40;1.00
7684;DHT22;3884;48.616;12.872;2024-03-06T10:09:19;10.50;1.00
7684;DHT22;3884;48.616;12.872;2024-03-06T10:11:46;10.10;1.00
7684;DHT22;3884;48.616;12.872;2024-03-06T10:14:14;10.00;1.00
7684;DHT22;3884;48.616;12.872;2024-03-06T10:16:54;10.00;1.00
7684;DHT22;3884;48.616;12.872;2024-03-06T10:19:23;10.10;1.00
7684;DHT22;3884;48.616;12.872;2024-03-06T10:21:53;10.20;1.00
7684;DHT22;3884;48.616;12.872;2024-03-06T10:24:22;10.20;1.00
7684;DHT22;3884;48.616;12.872;2024-03-06T10:26:50;10.30;1.00
7684;DHT22;3884;48.616;12.872;2024-03-06T10:29:20;10.40;1.00
7684;DHT22;3884;48.616;12.872;2024-03-06T10:31:52;10.40;1.00
7684;DHT22;3884;48.616;12.872;2024-03-06T10:34:20;9.90;1.00
7684;DHT22;3884;48.616;12.872;2024-03-06T10:37:14;10.00;1.00
7684;DHT22;3884;48.616;12.872;2024-03-06T10:39:51;10.10;99.90
7684;DHT22;3884;48.616;12.872;2024-03-06T10:42:39;10.00;1.00
7684;DHT22;3884;48.616;12.872;2024-03-06T10:47:28;10.10;1.00
7684;DHT22;3884;48.616;12.872;2024-03-06T10:49:03;10.40;1.00
7684;DHT22;3884;48.616;12.872;2024-03-06T10:51:30;10.10;1.00
7684;DHT22;3884;48.616;12.872;2024-03-06T10:53:59;10.00;1.00
7684;DHT22;3884;48.616;12.872;2024-03-06T10:56:28;9.90;1.00
7684;DHT22;3884;48.616;12.872;2024-03-06T10:58:57;9.70;1.00
7684;DHT22;3884;48.616;12.872;2024-03-06T11:01:25;9.80;1.00
7684;DHT22;3884;48.616;12.872;2024-03-06T11:03:53;9.80;1.00
7684;DHT22;3884;48.616;12.872;2024-03-06T11:06:20;9.80;1.00
7684;DHT22;3884;48.616;12.872;2024-03-06T11:08:47;10.00;1.00
7684;DHT22;3884;48.616;12.872;2024-03-06T11:11:23;9.90;1.00
7684;DHT22;3884;48.616;12.872;2024-03-06T11:13:54;10.10;1.00
7684;DHT22;3884;48.616;12.872;2024-03-06T11:16:27;10.30;1.00
7684;DHT22;3884;48.616;12.872;2024-03-06T11:19:05;10.40;1.00
7684;DHT22;3884;48.616;12.872;2024-03-06T11:21:32;10.20;1.00
7684;DHT22;3884;48.616;12.872;2024-03-06T11:24:22;10.20;1.00
7684;DHT22;3884;48.616;12.872;2024-03-06T11:53:06;10.40;1.00
7684;DHT22;3884;48.616;12.872;2024-03-06T11:55:33;10.60;1.00
7684;DHT22;3884;48.616;12.872;2024-03-06T12:01:04;10.30;1.00
7684;DHT22;3884;48.616;12.872;2024-03-06T12:06:13;10.40;1.00
7684;DHT22;3884;48.616;12.872;2024-03-06T12:07:32;10.70;1.00
7684;DHT22;3884;48.616;12.872;2024-03-06T12:10:02;10.90;99.90
7684;DHT22;3884;48.616;12.872;2024-03-06T12:12:29;10.90;1.00
7684;DHT22;3884;48.616;12.872;2024-03-06T12:14:57;11.00;1.00
7684;DHT22;3884;48.616;12.872;2024-03-06T12:17:26;11.10;99.90
7684;DHT22;3884;48.616;12.872;2024-03-06T12:20:03;10.90;99.90
7684;DHT22;3884;48.616;12.872;2024-03-06T12:22:31;11.00;99.90
7684;DHT22;3884;48.616;12.872;2024-03-06T12:25:02;11.40;99.90
7684;DHT22;3884;48.616;12.872;2024-03-06T12:27:38;10.90;99.90
7684;DHT22;3884;48.616;12.872;2024-03-06T12:33:59;10.70;99.90
7684;DHT22;3884;48.616;12.872;2024-03-06T12:43:29;10.90;99.90
7684;DHT22;3884;48.616;12.872;2024-03-06T12:46:32;10.70;99.90
7684;DHT22;3884;48.616;12.872;2024-03-06T12:48:59;10.50;99.90
7684;DHT22;3884;48.616;12.872;2024-03-06T12:51:27;10.40;1.00
7684;DHT22;3884;48.616;12.872;2024-03-06T12:54:00;10.50;1.00
7684;DHT22;3884;48.616;12.872;2024-03-06T12:56:34;10.30;1.00
7684;DHT22;3884;48.616;12.872;2024-03-06T12:59:07;10.50;99.90
7684;DHT22;3884;48.616;12.872;2024-03-06T13:01:46;10.70;99.90
7684;DHT22;3884;48.616;12.872;2024-03-06T13:04:13;10.70;99.90
7684;DHT22;3884;48.616;12.872;2024-03-06T13:06:41;10.70;99.90
7684;DHT22;3884;48.616;12.872;2024-03-06T13:09:19;10.70;1.00
7684;DHT22;3884;48.616;12.872;2024-03-06T13:11:45;10.80;99.90
7684;DHT22;3884;48.616;12.872;2024-03-06T13:14:14;10.90;99.90
7684;DHT22;3884;48.616;12.872;2024-03-06T13:16:42;10.80;99.90
7684;DHT22;3884;48.616;12.872;2024-03-06T13:19:21;10.80;99.90
7684;DHT22;3884;48.616;12.872;2024-03-06T13:24:45;10.70;99.90
7684;DHT22;3884;48.616;12.872;2024-03-06T13:27:12;10.70;99.90
7684;DHT22;3884;48.616;12.872;2024-03-06T13:29:41;10.70;99.90
7684;DHT22;3884;48.616;12.872;2024-03-06T13:32:08;10.80;99.90
7684;DHT22;3884;48.616;12.872;2024-03-06T13:34:35;10.70;99.90
7684;DHT22;3884;48.616;12.872;2024-03-06T13:37:02;10.60;99.90
7684;DHT22;3884;48.616;12.872;2024-03-06T13:39:29;10.60;99.90
7684;DHT22;3884;48.616;12.872;2024-03-06T13:41:57;10.60;99.90
7684;DHT22;3884;48.616;12.872;2024-03-06T13:44:24;10.70;99.90
7684;DHT22;3884;48.616;12.872;2024-03-06T13:46:53;10.60;99.90
7684;DHT22;3884;48.616;12.872;2024-03-06T13:49:36;10.50;1.00
7684;DHT22;3884;48.616;12.872;2024-03-06T13:52:03;10.60;1.00
7684;DHT22;3884;48.616;12.872;2024-03-06T13:54:33;10.50;1.00
7684;DHT22;3884;48.616;12.872;2024-03-06T13:57:01;10.50;1.00
7684;DHT22;3884;48.616;12.872;2024-03-06T13:59:29;10.50;1.00
7684;DHT22;3884;48.616;12.872;2024-03-06T14:01:59;10.60;1.00
7684;DHT22;3884;48.616;12.872;2024-03-06T14:04:28;10.80;99.90
7684;DHT22;3884;48.616;12.872;2024-03-06T14:06:56;10.80;99.90
7684;DHT22;3884;48.616;12.872;2024-03-06T14:09:24;10.90;99.90
7684;DHT22;3884;48.616;12.872;2024-03-06T14:11:52;11.00;99.90
7684;DHT22;3884;48.616;12.872;2024-03-06T14:14:22;11.00;99.90
7684;DHT22;3884;48.616;12.872;2024-03-06T14:16:51;10.90;1.00
7684;DHT22;3884;48.616;12.872;2024-03-06T14:19:20;10.90;1.00
7684;DHT22;3884;48.616;12.872;2024-03-06T14:21:48;11.30;99.90
7684;DHT22;3884;48.616;12.872;2024-03-06T14:24:16;11.50;99.90
7684;DHT22;3884;48.616;12.872;2024-03-06T14:26:46;11.60;99.90
7684;DHT22;3884;48.616;12.872;2024-03-06T14:29:14;11.80;99.90
7684;DHT22;3884;48.616;12.872;2024-03-06T14:31:41;11.90;99.90
7684;DHT22;3884;48.616;12.872;2024-03-06T14:34:09;12.10;99.90
7684;DHT22;3884;48.616;12.872;2024-03-06T14:36:39;11.90;99.90
7684;DHT22;3884;48.616;12.872;2024-03-06T14:39:11;11.70;99.90
7684;DHT22;3884;48.616;12.872;2024-03-06T14:41:42;11.60;99.90
7684;DHT22;3884;48.616;12.872;2024-03-06T14:44:10;11.30;99.90
7684;DHT22;3884;48.616;12.872;2024-03-06T15:41:58;9.40;1.00
7684;DHT22;3884;48.616;12.872;2024-03-06T15:44:38;9.50;1.00
7684;DHT22;3884;48.616;12.872;2024-03-06T15:47:10;9.40;1.00
7684;DHT22;3884;48.616;12.872;2024-03-06T15:49:48;9.50;1.00
7684;DHT22;3884;48.616;12.872;2024-03-06T15:52:15;9.50;1.00
7684;DHT22;3884;48.616;12.872;2024-03-06T15:54:44;9.70;1.00
7684;DHT22;3884;48.616;12.872;2024-03-06T15:57:51;9.50;1.00
7684;DHT22;3884;48.616;12.872;2024-03-06T16:00:34;9.60;99.90
7684;DHT22;3884;48.616;12.872;2024-03-06T16:03:09;9.60;99.90
7684;DHT22;3884;48.616;12.872;2024-03-06T16:05:38;9.60;99.90
7684;DHT22;3884;48.616;12.872;2024-03-06T16:08:20;9.80;99.90
7684;DHT22;3884;48.616;12.872;2024-03-06T16:10:52;9.40;1.00
7684;DHT22;3884;48.616;12.872;2024-03-06T16:13:29;9.30;1.00
7684;DHT22;3884;48.616;12.872;2024-03-06T16:15:56;9.20;1.00
7684;DHT22;3884;48.616;12.872;2024-03-06T16:18:26;9.10;1.00
7684;DHT22;3884;48.616;12.872;2024-03-06T16:20:53;9.20;99.90
7684;DHT22;3884;48.616;12.872;2024-03-06T16:23:21;9.10;1.00
7684;DHT22;3884;48.616;12.872;2024-03-06T16:25:48;9.20;19.10
7684;DHT22;3884;48.616;12.872;2024-03-06T16:28:16;9.10;1.00
7684;DHT22;3884;48.616;12.872;2024-03-06T16:30:47;9.10;1.00
7684;DHT22;3884;48.616;12.872;2024-03-06T16:33:17;9.10;1.00
7684;DHT22;3884;48.616;12.872;2024-03-06T16:35:48;9.10;1.00
7684;DHT22;3884;48.616;12.872;2024-03-06T16:38:15;9.00;99.90
7684;DHT22;3884;48.616;12.872;2024-03-06T16:40:46;9.00;99.90
7684;DHT22;3884;48.616;12.872;2024-03-06T16:43:19;9.10;99.90
7684;DHT22;3884;48.616;12.872;2024-03-06T17:05:20;9.10;99.90
7684;DHT22;3884;48.616;12.872;2024-03-06T17:17:12;9.00;1.00
7684;DHT22;3884;48.616;12.872;2024-03-06T17:19:41;9.10;1.00
7684;DHT22;3884;48.616;12.872;2024-03-06T17:22:14;9.10;1.00
7684;DHT22;3884;48.616;12.872;2024-03-06T17:24:57;9.10;1.00
7684;DHT22;3884;48.616;12.872;2024-03-06T17:27:27;9.00;1.00
7684;DHT22;3884;48.616;12.872;2024-03-06T17:29:55;9.10;90.20
7684;DHT22;3884;48.616;12.872;2024-03-06T17:32:22;9.00;78.60
7684;DHT22;3884;48.616;12.872;2024-03-06T17:34:49;9.00;31.60
7684;DHT22;3884;48.616;12.872;2024-03-06T17:37:18;9.00;1.00
7684;DHT22;3884;48.616;12.872;2024-03-06T17:39:45;8.90;99.90
7684;DHT22;3884;48.616;12.872;2024-03-06T17:42:12;8.90;99.90
7684;DHT22;3884;48.616;12.872;2024-03-06T17:44:40;8.90;99.90
7684;DHT22;3884;48.616;12.872;2024-03-06T17:47:07;8.80;7.10
7684;DHT22;3884;48.616;12.872;2024-03-06T17:49:36;8.80;99.90
7684;DHT22;3884;48.616;12.872;2024-03-06T17:52:04;8.70;99.90
7684;DHT22;3884;48.616;12.872;2024-03-06T17:54:33;8.70;99.90
7684;DHT22;3884;48.616;12.872;2024-03-06T17:57:01;8.90;1.00
7684;DHT22;3884;48.616;12.872;2024-03-06T17:59:29;8.70;99.90
7684;DHT22;3884;48.616;12.872;2024-03-06T18:01:56;8.90;99.90
7684;DHT22;3884;48.616;12.872;2024-03-06T18:04:23;8.60;1.00
7684;DHT22;3884;48.616;12.872;2024-03-06T18:06:52;8.60;1.00
7684;DHT22;3884;48.616;12.872;2024-03-06T18:09:20;8.70;1.00
7684;DHT22;3884;48.616;12.872;2024-03-06T18:11:51;8.50;1.00
7684;DHT22;3884;48.616;12.872;2024-03-06T18:14:18;8.90;1.00
7684;DHT22;3884;48.616;12.872;2024-03-06T18:16:45;8.60;1.00
7684;DHT22;3884;48.616;12.872;2024-03-06T18:19:13;8.60;99.90
7684;DHT22;3884;48.616;12.872;2024-03-06T18:21:43;8.50;99.90
7684;DHT22;3884;48.616;12.872;2024-03-06T18:24:10;8.40;1.00
7684;DHT22;3884;48.616;12.872;2024-03-06T18:26:39;8.40;1.00
7684;DHT22;3884;48.616;12.872;2024-03-06T18:29:08;8.40;1.00
7684;DHT22;3884;48.616;12.872;2024-03-06T18:31:36;8.70;99.90
7684;DHT22;3884;48.616;12.872;2024-03-06T18:34:03;8.70;1.00
7684;DHT22;3884;48.616;12.872;2024-03-06T18:36:30;8.90;1.00
7684;DHT22;3884;48.616;12.872;2024-03-06T18:38:57;9.00;86.30
7684;DHT22;3884;48.616;12.872;2024-03-06T18:41:24;8.60;1.00
7684;DHT22;3884;48.616;12.872;2024-03-06T18:43:51;8.70;1.00
7684;DHT22;3884;48.616;12.872;2024-03-06T18:46:21;8.80;1.00
7684;DHT22;3884;48.616;12.872;2024-03-06T18:48:48;8.50;1.00
7684;DHT22;3884;48.616;12.872;2024-03-06T18:51:16;8.50;1.00
7684;DHT22;3884;48.616;12.872;2024-03-06T18:53:44;8.50;35.80
7684;DHT22;3884;48.616;12.872;2024-03-06T18:56:11;8.50;99.90
7684;DHT22;3884;48.616;12.872;2024-03-06T18:58:40;8.50;99.90
7684;DHT22;3884;48.616;12.872;2024-03-06T19:01:07;8.50;99.90
7684;DHT22;3884;48.616;12.872;2024-03-06T19:03:36;8.60;99.90
7684;DHT22;3884;48.616;12.872;2024-03-06T19:06:03;8.70;1.00
7684;DHT22;3884;48.616;12.872;2024-03-06T19:08:30;8.40;1.00
7684;DHT22;3884;48.616;12.872;2024-03-06T19:10:57;8.40;1.00
7684;DHT22;3884;48.616;12.872;2024-03-06T19:13:25;8.40;1.00
7684;DHT22;3884;48.616;12.872;2024-03-06T19:15:52;8.40;1.00
7684;DHT22;3884;48.616;12.872;2024-03-06T19:18:23;8.40;55.10
7684;DHT22;3884;48.616;12.872;2024-03-06T19:20:52;8.40;99.90
7684;DHT22;3884;48.616;12.872;2024-03-06T19:23:25;8.30;99.90
7684;DHT22;3884;48.616;12.872;2024-03-06T19:25:56;8.30;99.90
7684;DHT22;3884;48.616;12.872;2024-03-06T19:29:13;8.20;1.00
7684;DHT22;3884;48.616;12.872;2024-03-06T19:32:25;8.20;1.00
7684;DHT22;3884;48.616;12.872;2024-03-06T19:34:55;8.20;1.00
7684;DHT22;3884;48.616;12.872;2024-03-06T19:37:25;8.10;1.00